Time;durP1;ratioP1;P1;durP2;ratioP2;P2;SDS_P1;SDS_P2;PMS_P1;PMS_P2;Temp;Humidity;BMP_temperature;BMP_pressure;BME280_temperature;BME280_humidity;BME280_pressure;Samples;Min_cycle;Max_cycle;Signal;HPM_P1;HPM_P2
2023/05/04 00:00:21;;;;;;;11.02;4.18;;;;;;;;;;6279975;22;20406;-93
2023/05/04 00:02:53;;;;;;;10.30;4.28;;;;;;;;;;6262042;22;20004;-93
2023/05/04 00:05:22;;;;;;;10.75;4.80;;;;;;;;;;6255869;22;20015;-93
2023/05/04 00:07:48;;;;;;;11.68;4.88;;;;;;;;;;6288847;22;20034;-93
2023/05/04 00:10:19;;;;;;;12.65;3.95;;;;;;;;;;6260947;22;20419;-93
2023/05/04 00:12:53;;;;;;;7.20;3.78;;;;;;;;;;6264844;22;20045;-96
2023/05/04 00:15:19;;;;;;;12.25;4.35;;;;;;;;;;6256495;22;20011;-93
2023/05/04 00:17:50;;;;;;;;;;;;;;;;;;6286489;22;20020;-94
2023/05/04 00:20:18;;;;;;;8.48;4.05;;;;;;;;;;6287850;22;19899;-93
2023/05/04 00:22:47;;;;;;;12.45;4.18;;;;;;;;;;6268112;22;20007;-93
2023/05/04 00:25:13;;;;;;;8.70;4.50;;;;;;;;;;6265966;22;20023;-93
2023/05/04 00:27:44;;;;;;;7.72;3.88;;;;;;;;;;6294848;22;20004;-94
2023/05/04 00:30:13;;;;;;;7.72;4.35;;;;;;;;;;6266632;22;20006;-95
2023/05/04 00:32:38;;;;;;;10.07;3.70;;;;;;;;;;6267806;22;20011;-94
2023/05/04 00:35:20;;;;;;;11.73;5.07;;;;;;;;;;6294691;22;20039;-93
2023/05/04 00:37:46;;;;;;;6.32;3.85;;;;;;;;;;6268018;22;20016;-93
2023/05/04 00:40:19;;;;;;;9.27;4.13;;;;;;;;;;6291938;22;20008;-93
2023/05/04 00:42:49;;;;;;;7.85;4.03;;;;;;;;;;6266913;22;19999;-94
2023/05/04 00:45:18;;;;;;;11.00;4.30;;;;;;;;;;6267363;22;20011;-93
2023/05/04 00:47:48;;;;;;;15.65;4.93;;;;;;;;;;6267440;22;20011;-93
2023/05/04 00:50:13;;;;;;;12.52;4.95;;;;;;;;;;6293903;22;20014;-93
2023/05/04 00:52:43;;;;;;;12.38;3.88;;;;;;;;;;6293673;22;19996;-93
2023/05/04 00:55:13;;;;;;;13.45;4.40;;;;;;;;;;6265765;22;20071;-92
2023/05/04 00:58:04;;;;;;;8.88;4.32;;;;;;;;;;6293132;22;19999;-94
2023/05/04 01:00:33;;;;;;;11.73;4.57;;;;;;;;;;6266948;22;20003;-94
2023/05/04 01:03:25;;;;;;;10.23;4.60;;;;;;;;;;6294634;22;20341;-93
2023/05/04 01:06:10;;;;;;;13.88;4.63;;;;;;;;;;6269237;22;20000;-95
2023/05/04 01:09:05;;;;;;;11.43;5.40;;;;;;;;;;6274947;22;19996;-94
2023/05/04 01:11:41;;;;;;;10.90;5.15;;;;;;;;;;6251982;22;20020;-95
2023/05/04 01:14:08;;;;;;;10.02;4.50;;;;;;;;;;6257721;22;19999;-95
2023/05/04 01:16:34;;;;;;;11.82;4.63;;;;;;;;;;6258011;22;20011;-95
2023/05/04 01:19:02;;;;;;;12.18;4.65;;;;;;;;;;6255622;22;20011;-95
2023/05/04 01:21:29;;;;;;;9.27;4.03;;;;;;;;;;6285556;22;19996;-95
2023/05/04 01:23:55;;;;;;;10.93;4.95;;;;;;;;;;6266059;22;20480;-94
2023/05/04 01:26:29;;;;;;;11.20;4.65;;;;;;;;;;6290101;22;20004;-94
2023/05/04 01:29:13;;;;;;;12.27;4.82;;;;;;;;;;6264852;22;20003;-95
2023/05/04 01:31:43;;;;;;;9.98;5.22;;;;;;;;;;6292936;22;20039;-94
2023/05/04 01:34:10;;;;;;;11.93;5.35;;;;;;;;;;6256234;22;20011;-95
2023/05/04 01:36:36;;;;;;;13.98;4.68;;;;;;;;;;6262380;22;20004;-94
2023/05/04 01:39:03;;;;;;;10.27;5.03;;;;;;;;;;6259418;22;20000;-95
2023/05/04 01:41:30;;;;;;;11.77;5.30;;;;;;;;;;6281694;22;20003;-95
2023/05/04 01:43:56;;;;;;;9.50;5.28;;;;;;;;;;6254010;22;20330;-94
2023/05/04 01:46:25;;;;;;;8.70;5.00;;;;;;;;;;6259381;22;20000;-95
2023/05/04 01:49:02;;;;;;;12.80;5.68;;;;;;;;;;6265278;22;19996;-94
2023/05/04 01:51:31;;;;;;;14.93;5.47;;;;;;;;;;6264327;22;20011;-96
2023/05/04 01:53:56;;;;;;;11.00;5.13;;;;;;;;;;6258525;22;20011;-94
2023/05/04 01:56:24;;;;;;;13.05;5.68;;;;;;;;;;6262336;22;20049;-95
2023/05/04 01:58:54;;;;;;;13.35;5.97;;;;;;;;;;6265572;22;20004;-95
2023/05/04 02:01:41;;;;;;;14.30;5.53;;;;;;;;;;6264869;22;20003;-95
2023/05/04 02:04:06;;;;;;;9.02;5.20;;;;;;;;;;6266374;22;19995;-95
2023/05/04 02:06:32;;;;;;;13.15;6.00;;;;;;;;;;6290697;22;20003;-94
2023/05/04 02:08:59;;;;;;;11.02;4.93;;;;;;;;;;6289337;22;20086;-95
2023/05/04 02:11:26;;;;;;;12.13;5.45;;;;;;;;;;6255881;22;20022;-95
2023/05/04 02:13:53;;;;;;;9.90;5.57;;;;;;;;;;6259860;22;20431;-94
2023/05/04 02:16:20;;;;;;;12.52;5.82;;;;;;;;;;6264969;22;20011;-96
2023/05/04 02:18:45;;;;;;;11.88;5.60;;;;;;;;;;6264535;22;20000;-95
2023/05/04 02:21:21;;;;;;;12.35;5.70;;;;;;;;;;6291185;22;20004;-93
2023/05/04 02:23:47;;;;;;;9.98;6.00;;;;;;;;;;6288490;22;20031;-94
2023/05/04 02:26:13;;;;;;;14.77;5.90;;;;;;;;;;6279495;22;20019;-94
2023/05/04 02:28:50;;;;;;;12.75;5.93;;;;;;;;;;6285119;22;19999;-94
2023/05/04 02:31:16;;;;;;;14.38;6.45;;;;;;;;;;6262540;22;20012;-94
2023/05/04 02:33:48;;;;;;;19.70;6.55;;;;;;;;;;6291267;22;20000;-94
2023/05/04 02:36:17;;;;;;;11.40;6.25;;;;;;;;;;6291583;22;20003;-94
2023/05/04 02:38:46;;;;;;;15.52;6.18;;;;;;;;;;6291839;22;20038;-93
2023/05/04 02:41:18;;;;;;;13.32;6.28;;;;;;;;;;6256544;22;19991;-94
2023/05/04 02:43:50;;;;;;;15.85;6.50;;;;;;;;;;6260093;22;20081;-94
2023/05/04 02:46:18;;;;;;;14.45;6.78;;;;;;;;;;6269218;22;20007;-93
2023/05/04 02:48:50;;;;;;;14.25;6.72;;;;;;;;;;6269340;22;19987;-94
2023/05/04 02:51:17;;;;;;;13.55;6.63;;;;;;;;;;6267962;22;20114;-93
2023/05/04 02:53:48;;;;;;;11.77;7.03;;;;;;;;;;6296421;22;19992;-94
2023/05/04 02:56:13;;;;;;;13.48;6.53;;;;;;;;;;6260657;22;20007;-93
2023/05/04 02:58:40;;;;;;;14.50;6.90;;;;;;;;;;6258418;22;19999;-94
2023/05/04 03:01:10;;;;;;;18.40;6.95;;;;;;;;;;6259745;22;20004;-95
2023/05/04 03:03:36;;;;;;;14.85;6.40;;;;;;;;;;6262937;22;20003;-94
2023/05/04 03:06:05;;;;;;;14.93;6.80;;;;;;;;;;6263267;22;20249;-94
2023/05/04 03:08:38;;;;;;;19.58;7.65;;;;;;;;;;6279035;22;20008;-94
2023/05/04 03:11:07;;;;;;;17.60;7.28;;;;;;;;;;6263319;22;20050;-95
2023/05/04 03:13:35;;;;;;;14.30;6.75;;;;;;;;;;6290831;22;20030;-93
2023/05/04 03:16:00;;;;;;;15.52;7.03;;;;;;;;;;6261366;22;20022;-94
2023/05/04 03:18:48;;;;;;;14.55;6.07;;;;;;;;;;6263597;22;19999;-94
2023/05/04 03:21:18;;;;;;;15.57;6.65;;;;;;;;;;6261965;22;19999;-94
2023/05/04 03:23:43;;;;;;;15.27;6.53;;;;;;;;;;6262730;22;20399;-93
2023/05/04 03:26:12;;;;;;;20.27;7.32;;;;;;;;;;6289096;22;20031;-92
2023/05/04 03:28:37;;;;;;;16.90;7.68;;;;;;;;;;6262429;22;20026;-93
2023/05/04 03:31:02;;;;;;;14.25;6.65;;;;;;;;;;6259468;22;20019;-93
2023/05/04 03:33:29;;;;;;;16.70;6.72;;;;;;;;;;6255792;22;20307;-94
2023/05/04 03:35:55;;;;;;;14.65;6.85;;;;;;;;;;6284602;22;20011;-93
2023/05/04 03:38:22;;;;;;;13.43;6.97;;;;;;;;;;6290799;22;20015;-94
2023/05/04 03:40:48;;;;;;;14.63;6.63;;;;;;;;;;6262133;22;20008;-93
2023/05/04 03:43:14;;;;;;;15.90;7.38;;;;;;;;;;6262496;22;19996;-93
2023/05/04 03:45:40;;;;;;;13.02;6.43;;;;;;;;;;6262773;22;20019;-94
2023/05/04 03:48:16;;;;;;;14.48;6.55;;;;;;;;;;6262312;22;20019;-94
2023/05/04 03:50:42;;;;;;;12.32;6.47;;;;;;;;;;6288722;22;20003;-94
2023/05/04 03:53:34;;;;;;;19.80;6.97;;;;;;;;;;6265529;22;20091;-93
2023/05/04 03:56:24;;;;;;;19.13;6.97;;;;;;;;;;6256168;22;20020;-94
2023/05/04 03:58:50;;;;;;;18.05;7.10;;;;;;;;;;6289530;22;20015;-93
2023/05/04 04:01:27;;;;;;;17.17;7.13;;;;;;;;;;6265092;22;20334;-94
2023/05/04 04:03:57;;;;;;;15.75;7.22;;;;;;;;;;6289233;22;20022;-92
2023/05/04 04:06:25;;;;;;;14.93;6.55;;;;;;;;;;6262685;22;20022;-95
2023/05/04 04:08:54;;;;;;;14.07;6.13;;;;;;;;;;6263261;22;20031;-93
2023/05/04 04:11:22;;;;;;;12.07;6.63;;;;;;;;;;6288528;22;20000;-93
2023/05/04 04:13:56;;;;;;;11.27;6.00;;;;;;;;;;6289370;22;20004;-94
2023/05/04 04:16:26;;;;;;;18.17;6.95;;;;;;;;;;6262337;22;19999;-94
2023/05/04 04:19:00;;;;;;;15.68;6.25;;;;;;;;;;6263821;22;20019;-94
2023/05/04 04:21:29;;;;;;;17.55;6.85;;;;;;;;;;6289565;22;20069;-94
2023/05/04 04:23:55;;;;;;;12.40;6.72;;;;;;;;;;6262706;22;20011;-94
2023/05/04 04:26:20;;;;;;;14.02;7.18;;;;;;;;;;6261989;22;20084;-94
2023/05/04 04:29:04;;;;;;;15.35;7.28;;;;;;;;;;6265869;22;20022;-94
2023/05/04 04:31:29;;;;;;;13.25;6.88;;;;;;;;;;6259800;22;20027;-94
2023/05/04 04:33:55;;;;;;;18.95;7.82;;;;;;;;;;6261561;22;20019;-94
2023/05/04 04:36:26;;;;;;;14.00;6.72;;;;;;;;;;6261816;22;20059;-94
2023/05/04 04:39:04;;;;;;;14.48;7.95;;;;;;;;;;6289125;22;20084;-93
2023/05/04 04:41:33;;;;;;;17.25;7.45;;;;;;;;;;6288042;22;20359;-94
2023/05/04 04:43:59;;;;;;;19.25;9.15;;;;;;;;;;6261794;22;20027;-94
2023/05/04 04:46:28;;;;;;;21.25;11.40;;;;;;;;;;6262113;22;20008;-94
2023/05/04 04:48:57;;;;;;;23.77;11.18;;;;;;;;;;6262809;22;20063;-95
2023/05/04 04:51:31;;;;;;;20.42;10.13;;;;;;;;;;6262389;22;20007;-94
2023/05/04 04:53:56;;;;;;;22.20;9.25;;;;;;;;;;6260577;22;19996;-94
2023/05/04 04:56:25;;;;;;;17.48;8.10;;;;;;;;;;6263471;22;20078;-94
2023/05/04 04:58:52;;;;;;;14.10;7.57;;;;;;;;;;6263243;22;20050;-93
2023/05/04 05:01:22;;;;;;;17.63;8.50;;;;;;;;;;6287472;22;20011;-94
2023/05/04 05:03:59;;;;;;;14.63;7.32;;;;;;;;;;6287843;22;20000;-94
2023/05/04 05:06:25;;;;;;;18.50;7.85;;;;;;;;;;6261053;22;20004;-94
2023/05/04 05:08:51;;;;;;;17.33;7.97;;;;;;;;;;6261689;22;20064;-93
2023/05/04 05:11:17;;;;;;;17.73;8.40;;;;;;;;;;6260349;22;20434;-94
2023/05/04 05:13:42;;;;;;;13.52;7.63;;;;;;;;;;6288973;22;20067;-93
2023/05/04 05:16:11;;;;;;;21.10;8.27;;;;;;;;;;6260403;22;20019;-94
2023/05/04 05:18:37;;;;;;;14.98;7.65;;;;;;;;;;6286880;22;20011;-94
2023/05/04 05:21:06;;;;;;;18.25;8.18;;;;;;;;;;6290415;22;20019;-94
2023/05/04 05:23:35;;;;;;;17.27;7.57;;;;;;;;;;6263371;22;20000;-93
2023/05/04 05:26:07;;;;;;;17.15;7.65;;;;;;;;;;6290797;22;20008;-93
2023/05/04 05:28:33;;;;;;;15.20;7.50;;;;;;;;;;6288301;22;20020;-94
2023/05/04 05:31:02;;;;;;;14.23;7.03;;;;;;;;;;6262733;22;20057;-94
2023/05/04 05:33:29;;;;;;;17.33;6.47;;;;;;;;;;6289898;22;20004;-93
2023/05/04 05:35:57;;;;;;;13.77;7.28;;;;;;;;;;6263865;22;20081;-94
2023/05/04 05:38:25;;;;;;;14.27;6.95;;;;;;;;;;6290321;22;20000;-94
2023/05/04 05:40:51;;;;;;;14.60;6.80;;;;;;;;;;6261764;22;20007;-93
2023/05/04 05:43:40;;;;;;;14.13;6.88;;;;;;;;;;6263387;22;20038;-94
2023/05/04 05:46:09;;;;;;;13.95;6.95;;;;;;;;;;6262989;22;20012;-94
2023/05/04 05:49:06;;;;;;;16.25;7.60;;;;;;;;;;6263250;22;20011;-94
2023/05/04 05:51:54;;;;;;;19.52;7.32;;;;;;;;;;6263497;22;20004;-96
2023/05/04 05:55:03;;;;;;;18.67;6.85;;;;;;;;;;6233845;22;20008;-94
2023/05/04 05:57:57;;;;;;;13.85;6.97;;;;;;;;;;6243246;22;20003;-95
2023/05/04 06:00:45;;;;;;;15.07;7.03;;;;;;;;;;6262812;22;20086;-95
2023/05/04 06:03:35;;;;;;;17.20;7.28;;;;;;;;;;6289514;22;20056;-94
2023/05/04 06:06:47;;;;;;;16.10;6.95;;;;;;;;;;6291996;22;20034;-94
2023/05/04 06:09:37;;;;;;;14.45;6.05;;;;;;;;;;6288754;22;20011;-94
2023/05/04 06:12:12;;;;;;;12.32;5.30;;;;;;;;;;6286276;22;20006;-95
2023/05/04 06:15:04;;;;;;;14.15;6.90;;;;;;;;;;6257790;22;20026;-94
2023/05/04 06:17:35;;;;;;;12.30;6.55;;;;;;;;;;6265963;22;20051;-94
2023/05/04 06:20:06;;;;;;;21.73;6.60;;;;;;;;;;6258030;22;20037;-94
2023/05/04 06:22:42;;;;;;;16.63;6.30;;;;;;;;;;6253439;22;20236;-94
2023/05/04 06:25:41;;;;;;;;;;;;;;;;;;;;;
2023/05/04 06:28:30;;;;;;;16.10;6.72;;;;;;;;;;6283141;22;20038;-95
2023/05/04 06:31:31;;;;;;;;;;;;;;;;;;;;;
2023/05/04 06:34:30;;;;;;;10.13;3.90;;;;;;;;;;6286902;22;20007;-95
2023/05/04 06:36:55;;;;;;;14.40;5.72;;;;;;;;;;6235175;22;20026;-96
2023/05/04 06:39:45;;;;;;;10.60;4.25;;;;;;;;;;6257727;22;20062;-96
2023/05/04 06:45:43;;;;;;;;;;;;;;;;;;;;;
2023/05/04 06:48:26;;;;;;;11.52;4.93;;;;;;;;;;6284880;22;20027;-95
2023/05/04 06:51:17;;;;;;;11.20;4.85;;;;;;;;;;6252904;22;19992;-95
2023/05/04 06:54:30;;;;;;;11.15;4.07;;;;;;;;;;6285873;22;20015;-94
2023/05/04 06:57:03;;;;;;;7.65;4.18;;;;;;;;;;6252660;22;20014;-94
2023/05/04 06:59:40;;;;;;;7.20;3.78;;;;;;;;;;6259890;22;20008;-95
2023/05/04 07:02:19;;;;;;;10.18;4.65;;;;;;;;;;6287829;22;19999;-95
2023/05/04 07:04:55;;;;;;;;;;;;;;;;;;;;;
2023/05/04 07:07:25;;;;;;;9.27;4.00;;;;;;;;;;6287933;22;20030;-94
2023/05/04 07:09:57;;;;;;;8.93;3.53;;;;;;;;;;6258647;22;20000;-96
2023/05/04 07:12:27;;;;;;;6.82;3.78;;;;;;;;;;6285478;22;20004;-94
2023/05/04 07:14:57;;;;;;;11.13;4.15;;;;;;;;;;6265406;22;20031;-96
2023/05/04 07:17:55;;;;;;;7.72;3.22;;;;;;;;;;6285353;22;20000;-95
2023/05/04 07:20:22;;;;;;;8.00;4.00;;;;;;;;;;6254563;22;20004;-95
2023/05/04 07:22:47;;;;;;;9.50;3.60;;;;;;;;;;6282617;22;20027;-95
2023/05/04 07:25:16;;;;;;;8.48;4.20;;;;;;;;;;6289287;22;19993;-94
2023/05/04 07:27:43;;;;;;;5.32;3.67;;;;;;;;;;6260866;22;20015;-95
2023/05/04 07:30:40;;;;;;;8.35;3.75;;;;;;;;;;6269165;22;20034;-95
2023/05/04 07:33:47;;;;;;;10.75;3.72;;;;;;;;;;6271548;22;19999;-95
2023/05/04 07:36:12;;;;;;;7.50;3.50;;;;;;;;;;6285762;22;20015;-95
2023/05/04 07:38:44;;;;;;;6.30;3.08;;;;;;;;;;6252516;22;20422;-95
2023/05/04 07:41:13;;;;;;;6.63;3.70;;;;;;;;;;6260463;22;20010;-95
2023/05/04 07:43:45;;;;;;;9.85;3.17;;;;;;;;;;6264192;22;20059;-95
2023/05/04 07:46:31;;;;;;;;;;;;;;;;;;6262995;22;19996;-95
2023/05/04 07:49:40;;;;;;;9.20;3.78;;;;;;;;;;6243506;22;19900;-94
2023/05/04 07:52:51;;;;;;;6.78;3.28;;;;;;;;;;6291495;22;20003;-95
2023/05/04 07:55:30;;;;;;;15.70;3.28;;;;;;;;;;6260431;22;20030;-95
2023/05/04 07:58:25;;;;;;;8.40;3.35;;;;;;;;;;6293607;22;19987;-95
2023/05/04 08:07:16;;;;;;;;;;;;;;;;;;;;;
2023/05/04 08:10:28;;;;;;;10.05;3.75;;;;;;;;;;6283108;22;20008;-94
2023/05/04 08:13:17;;;;;;;11.20;3.53;;;;;;;;;;6248399;22;20458;-95
2023/05/04 08:16:22;;;;;;;7.72;3.25;;;;;;;;;;6281492;22;20011;-94
2023/05/04 08:19:17;;;;;;;8.20;3.50;;;;;;;;;;6292469;22;20000;-94
2023/05/04 08:21:44;;;;;;;7.47;3.38;;;;;;;;;;6292129;22;20064;-95
2023/05/04 08:24:34;;;;;;;9.48;3.45;;;;;;;;;;6258680;23;20000;-95
2023/05/04 08:27:42;;;;;;;11.57;3.80;;;;;;;;;;6260116;22;19998;-95
2023/05/04 12:03:42;;;;;;;;;;;;;;;;;;;;;
2023/05/04 12:06:21;;;;;;;;;;;;;;;;;;;;;
2023/05/04 12:09:40;;;;;;;5.78;2.78;;;;;;;;;;6295299;22;20008;-95
2023/05/04 13:51:14;;;;;;;;;;;;;;;;;;6297741;22;20018;-95
2023/05/04 13:54:13;;;;;;;4.75;2.33;;;;;;;;;;6277119;22;19907;-96
2023/05/04 13:57:19;;;;;;;8.27;2.30;;;;;;;;;;6289255;22;20019;-95
2023/05/04 14:00:26;;;;;;;4.35;2.67;;;;;;;;;;6296947;22;20004;-95
2023/05/04 14:03:06;;;;;;;3.00;2.33;;;;;;;;;;6292120;22;20038;-96
2023/05/04 14:05:58;;;;;;;3.00;1.88;;;;;;;;;;6300222;22;20011;-96
2023/05/04 14:08:57;;;;;;;4.63;2.38;;;;;;;;;;6299595;22;20011;-95
2023/05/04 14:11:31;;;;;;;5.63;2.40;;;;;;;;;;6297565;22;19995;-95
2023/05/04 14:13:59;;;;;;;4.03;2.13;;;;;;;;;;6246056;22;20015;-96
2023/05/04 14:16:43;;;;;;;8.68;2.10;;;;;;;;;;6268241;22;20062;-95
2023/05/04 14:19:30;;;;;;;3.05;2.13;;;;;;;;;;6289303;22;20006;-95
2023/05/04 14:22:33;;;;;;;2.58;1.90;;;;;;;;;;6294805;22;20004;-95
2023/05/04 14:27:52;;;;;;;2.42;1.77;;;;;;;;;;6285912;22;20020;-94
2023/05/04 14:30:25;;;;;;;3.42;2.20;;;;;;;;;;6294072;22;20010;-95
2023/05/04 14:33:25;;;;;;;3.75;2.53;;;;;;;;;;6297042;22;20007;-95
2023/05/04 14:38:44;;;;;;;2.90;1.90;;;;;;;;;;6293953;22;20019;-94
2023/05/04 14:41:44;;;;;;;6.43;2.40;;;;;;;;;;6275681;22;20004;-94
2023/05/04 14:44:52;;;;;;;6.10;2.42;;;;;;;;;;6148176;23;20009;-94
2023/05/04 14:47:21;;;;;;;3.15;2.00;;;;;;;;;;6149248;23;19990;-94
2023/05/04 14:49:52;;;;;;;7.90;1.85;;;;;;;;;;6122668;23;20024;-94
2023/05/04 14:52:37;;;;;;;2.17;1.13;;;;;;;;;;6148094;23;19994;-94
2023/05/04 14:55:53;;;;;;;2.80;1.50;;;;;;;;;;6296863;22;20115;-94
2023/05/04 14:58:45;;;;;;;3.72;1.77;;;;;;;;;;6297817;22;20004;-94
2023/05/04 15:01:38;;;;;;;3.22;1.80;;;;;;;;;;6273453;22;19996;-94
2023/05/04 15:04:27;;;;;;;5.30;1.67;;;;;;;;;;6275513;22;20003;-95
2023/05/04 15:07:51;;;;;;;6.25;1.92;;;;;;;;;;6264506;22;20011;-93
2023/05/04 15:10:34;;;;;;;3.72;1.60;;;;;;;;;;6276768;22;20004;-94
2023/05/04 15:13:45;;;;;;;2.55;1.65;;;;;;;;;;6300381;22;20019;-93
2023/05/04 15:16:17;;;;;;;7.13;1.90;;;;;;;;;;6276581;22;20027;-94
2023/05/04 15:19:13;;;;;;;2.78;1.55;;;;;;;;;;6275250;22;20034;-93
2023/05/04 15:21:57;;;;;;;6.45;1.80;;;;;;;;;;6272078;22;20007;-93
2023/05/04 15:24:24;;;;;;;2.45;1.92;;;;;;;;;;6274709;22;20090;-94
2023/05/04 15:27:08;;;;;;;4.70;1.67;;;;;;;;;;6269706;22;20046;-94
2023/05/04 15:29:36;;;;;;;11.73;1.50;;;;;;;;;;6270303;22;19988;-94
2023/05/04 15:32:27;;;;;;;3.17;1.73;;;;;;;;;;6268450;22;20018;-95
2023/05/04 15:35:20;;;;;;;3.20;1.80;;;;;;;;;;6253983;22;20020;-95
2023/05/04 15:37:50;;;;;;;7.18;2.15;;;;;;;;;;6232137;23;19996;-94
2023/05/04 15:40:18;;;;;;;2.93;1.70;;;;;;;;;;6245718;23;20048;-94
2023/05/04 15:42:56;;;;;;;3.47;1.65;;;;;;;;;;6260145;23;19999;-94
2023/05/04 15:45:28;;;;;;;6.60;1.90;;;;;;;;;;6236788;23;19995;-93
2023/05/04 15:48:21;;;;;;;2.38;1.50;;;;;;;;;;6266628;23;19988;-94
2023/05/04 15:51:13;;;;;;;2.50;1.60;;;;;;;;;;6241512;23;20004;-94
2023/05/04 15:53:59;;;;;;;1.70;0.85;;;;;;;;;;6267562;23;20004;-93
2023/05/04 15:59:04;;;;;;;4.07;1.73;;;;;;;;;;6290756;22;20016;-95
2023/05/04 16:01:52;;;;;;;2.75;1.48;;;;;;;;;;6299324;22;20019;-95
2023/05/04 16:05:00;;;;;;;3.20;1.50;;;;;;;;;;6301178;22;19992;-94
2023/05/04 16:07:26;;;;;;;3.03;1.67;;;;;;;;;;6290302;22;20087;-94
2023/05/04 16:10:01;;;;;;;2.90;1.48;;;;;;;;;;6296338;22;20011;-94
2023/05/04 16:12:52;;;;;;;2.65;1.30;;;;;;;;;;6275910;22;19999;-94
2023/05/04 16:15:32;;;;;;;4.95;1.60;;;;;;;;;;6299973;22;20012;-95
2023/05/04 16:18:17;;;;;;;6.28;1.83;;;;;;;;;;6301124;22;20008;-94
2023/05/04 16:20:53;;;;;;;4.32;1.60;;;;;;;;;;6301177;22;20068;-94
2023/05/04 16:23:21;;;;;;;2.95;1.63;;;;;;;;;;6274930;22;19991;-94
2023/05/04 16:26:15;;;;;;;2.88;1.27;;;;;;;;;;6303734;22;20008;-94
2023/05/04 16:29:01;;;;;;;3.22;1.70;;;;;;;;;;6392715;22;19995;-94
2023/05/04 16:31:34;;;;;;;2.42;1.30;;;;;;;;;;6395062;22;20316;-94
2023/05/04 16:34:21;;;;;;;3.90;1.65;;;;;;;;;;6367245;22;19982;-94
2023/05/04 16:36:48;;;;;;;6.57;1.60;;;;;;;;;;6367700;22;20006;-93
2023/05/04 16:39:36;;;;;;;2.35;1.50;;;;;;;;;;6394911;22;20026;-94
2023/05/04 16:42:21;;;;;;;4.90;1.75;;;;;;;;;;6367773;22;20007;-94
2023/05/04 16:44:54;;;;;;;3.70;1.42;;;;;;;;;;6368445;22;19983;-94
2023/05/04 16:47:27;;;;;;;3.20;1.70;;;;;;;;;;6394758;22;20009;-93
2023/05/04 16:49:53;;;;;;;2.35;1.63;;;;;;;;;;6361265;22;20332;-94
2023/05/04 16:52:21;;;;;;;6.68;1.55;;;;;;;;;;6390248;22;19979;-93
2023/05/04 16:54:50;;;;;;;3.25;1.50;;;;;;;;;;6363181;22;20010;-93
2023/05/04 16:57:15;;;;;;;3.28;1.35;;;;;;;;;;6328158;22;19998;-93
2023/05/04 16:59:40;;;;;;;2.47;1.30;;;;;;;;;;6361864;22;20097;-93
2023/05/04 17:02:16;;;;;;;2.63;1.85;;;;;;;;;;6391163;22;20003;-94
2023/05/04 17:04:47;;;;;;;5.60;1.48;;;;;;;;;;6362816;22;20006;-94
2023/05/04 17:07:14;;;;;;;5.97;1.67;;;;;;;;;;6310618;22;20024;-94
2023/05/04 17:09:44;;;;;;;3.05;1.80;;;;;;;;;;6294486;22;20010;-94
2023/05/04 17:12:22;;;;;;;3.45;1.70;;;;;;;;;;6301807;22;20019;-95
2023/05/04 17:15:06;;;;;;;2.58;1.48;;;;;;;;;;6331293;22;20093;-94
2023/05/04 17:17:40;;;;;;;5.80;1.85;;;;;;;;;;6327063;22;19995;-94
2023/05/04 17:20:20;;;;;;;4.80;1.55;;;;;;;;;;6330513;22;19995;-94
2023/05/04 17:22:50;;;;;;;3.17;1.60;;;;;;;;;;6306774;22;20018;-94
2023/05/04 17:25:50;;;;;;;5.93;1.50;;;;;;;;;;6333215;22;20003;-94
2023/05/04 17:28:50;;;;;;;3.17;1.60;;;;;;;;;;6331646;22;20003;-94
2023/05/04 17:33:51;;;;;;;3.53;2.42;;;;;;;;;;6320315;22;20022;-93
2023/05/04 17:36:18;;;;;;;4.45;1.90;;;;;;;;;;6293510;22;20015;-94
2023/05/04 17:38:47;;;;;;;4.65;2.13;;;;;;;;;;6301339;22;20003;-93
2023/05/04 17:41:12;;;;;;;3.25;2.00;;;;;;;;;;6304874;22;19991;-93
2023/05/04 17:44:17;;;;;;;3.63;1.95;;;;;;;;;;6332790;22;20007;-93
2023/05/04 17:46:48;;;;;;;3.75;1.83;;;;;;;;;;6303192;22;19995;-94
2023/05/04 17:49:39;;;;;;;3.83;2.00;;;;;;;;;;6304237;22;19999;-94
2023/05/04 17:52:36;;;;;;;3.05;1.85;;;;;;;;;;6330029;22;20018;-94
2023/05/04 17:55:04;;;;;;;4.22;1.75;;;;;;;;;;6327156;22;20038;-94
2023/05/04 17:57:51;;;;;;;3.10;1.80;;;;;;;;;;6331985;22;19994;-94
2023/05/04 18:00:20;;;;;;;4.80;1.80;;;;;;;;;;6305163;22;19999;-93
2023/05/04 18:03:05;;;;;;;2.50;1.70;;;;;;;;;;6332366;22;19999;-94
2023/05/04 18:05:31;;;;;;;5.93;2.00;;;;;;;;;;6297415;22;20086;-94
2023/05/04 18:08:39;;;;;;;5.28;2.13;;;;;;;;;;6324451;22;20007;-94
2023/05/04 18:11:21;;;;;;;6.05;2.25;;;;;;;;;;6322900;22;20018;-95
2023/05/04 18:13:47;;;;;;;6.85;2.45;;;;;;;;;;6300961;22;19999;-94
2023/05/04 18:16:13;;;;;;;4.50;2.58;;;;;;;;;;6330114;22;20023;-93
2023/05/04 18:18:43;;;;;;;3.03;2.20;;;;;;;;;;6304791;22;19987;-94
2023/05/04 18:21:27;;;;;;;9.57;2.80;;;;;;;;;;6329428;22;20031;-94
2023/05/04 18:23:52;;;;;;;5.20;2.10;;;;;;;;;;6301259;22;20069;-93
2023/05/04 18:26:22;;;;;;;3.47;2.00;;;;;;;;;;6328565;22;20083;-95
2023/05/04 18:29:08;;;;;;;9.05;2.53;;;;;;;;;;6301460;22;19999;-94
2023/05/04 18:31:41;;;;;;;7.65;2.72;;;;;;;;;;6327562;22;20023;-94
2023/05/04 18:34:42;;;;;;;5.45;2.60;;;;;;;;;;6328675;22;20003;-93
2023/05/04 18:37:13;;;;;;;5.30;3.03;;;;;;;;;;6317174;22;20074;-94
2023/05/04 18:39:44;;;;;;;6.43;2.50;;;;;;;;;;6325750;22;20026;-94
2023/05/04 18:42:18;;;;;;;5.15;2.70;;;;;;;;;;6328125;22;20017;-94
2023/05/04 18:45:03;;;;;;;9.05;3.05;;;;;;;;;;6301402;22;19991;-94
2023/05/04 18:47:45;;;;;;;7.28;3.08;;;;;;;;;;6326201;22;20011;-93
2023/05/04 18:50:31;;;;;;;8.90;3.53;;;;;;;;;;6322461;22;20081;-94
2023/05/04 18:53:04;;;;;;;4.38;2.63;;;;;;;;;;6302659;22;19994;-95
2023/05/04 18:55:42;;;;;;;5.25;2.53;;;;;;;;;;6326743;22;20011;-94
2023/05/04 18:58:09;;;;;;;5.38;2.65;;;;;;;;;;6328086;22;20007;-94
2023/05/04 19:00:57;;;;;;;5.57;2.30;;;;;;;;;;6328549;22;20017;-93
2023/05/04 19:03:46;;;;;;;4.38;2.22;;;;;;;;;;6328771;22;19991;-94
2023/05/04 19:06:13;;;;;;;3.83;2.30;;;;;;;;;;6293362;22;20015;-95
2023/05/04 19:08:41;;;;;;;4.93;2.30;;;;;;;;;;6320049;22;20445;-94
2023/05/04 19:11:06;;;;;;;3.65;2.70;;;;;;;;;;6298270;22;20030;-95
2023/05/04 19:13:38;;;;;;;8.00;2.83;;;;;;;;;;6326907;22;19999;-93
2023/05/04 19:16:25;;;;;;;8.20;2.88;;;;;;;;;;6300246;22;19999;-93
2023/05/04 19:19:06;;;;;;;3.85;2.35;;;;;;;;;;6329955;22;20075;-94
2023/05/04 19:21:51;;;;;;;2.85;2.13;;;;;;;;;;6301758;22;19991;-94
2023/05/04 19:24:18;;;;;;;4.07;2.50;;;;;;;;;;6302392;22;20067;-94
2023/05/04 19:26:59;;;;;;;4.45;2.40;;;;;;;;;;6305029;22;19987;-93
2023/05/04 19:29:43;;;;;;;3.38;2.28;;;;;;;;;;6328185;22;20003;-94
2023/05/04 19:32:40;;;;;;;2.80;2.20;;;;;;;;;;6330579;22;20037;-94
2023/05/04 19:35:13;;;;;;;4.32;2.30;;;;;;;;;;6330856;22;20034;-94
2023/05/04 19:37:42;;;;;;;5.60;3.00;;;;;;;;;;6328714;22;19995;-94
2023/05/04 19:40:18;;;;;;;9.88;2.53;;;;;;;;;;6333583;22;20055;-94
2023/05/04 19:42:46;;;;;;;7.25;2.72;;;;;;;;;;6295821;22;20075;-93
2023/05/04 19:45:15;;;;;;;3.45;2.42;;;;;;;;;;6306835;22;19991;-93
2023/05/04 19:47:52;;;;;;;6.97;3.13;;;;;;;;;;6331102;22;19995;-94
2023/05/04 19:50:47;;;;;;;3.25;2.38;;;;;;;;;;6331287;22;20010;-93
2023/05/04 19:53:32;;;;;;;4.72;2.70;;;;;;;;;;6330866;22;20007;-93
2023/05/04 19:56:10;;;;;;;5.70;3.13;;;;;;;;;;6331412;22;20029;-93
2023/05/04 19:58:57;;;;;;;4.38;2.65;;;;;;;;;;6328354;22;20010;-92
2023/05/04 20:01:24;;;;;;;6.93;3.90;;;;;;;;;;6303642;22;19996;-93
2023/05/04 20:04:11;;;;;;;7.43;3.15;;;;;;;;;;6320431;22;20006;-93
2023/05/04 20:06:38;;;;;;;6.28;3.13;;;;;;;;;;6329056;22;20089;-94
2023/05/04 20:09:17;;;;;;;4.03;2.95;;;;;;;;;;6300153;22;20222;-95
2023/05/04 20:11:51;;;;;;;7.45;2.95;;;;;;;;;;6323965;22;20003;-94
2023/05/04 20:14:23;;;;;;;7.18;3.55;;;;;;;;;;6309199;22;19987;-94
2023/05/04 20:19:50;;;;;;;5.55;3.22;;;;;;;;;;6326897;22;20026;-95
2023/05/04 20:23:36;;;;;;;5.25;3.60;;;;;;;;;;6264121;22;20001;-95
2023/05/04 20:25:53;;;;;;;7.95;3.70;;;;;;;;;;6299277;22;19991;-95
2023/05/04 20:31:35;;;;;;;7.47;3.38;;;;;;;;;;6329255;22;20014;-94
2023/05/04 20:34:37;;;;;;;4.95;3.45;;;;;;;;;;6328402;22;20023;-94
